| time (UTC) | temp C | wind direction | speed KPH | gust KPH | rain 1hr cm | rain 24hr cm | rain mn cm | humidity % | barometer mb |
| 20260905204502 | 37 | 297 | 3.2 | 12.9 | 0.00 | 0.25 | 0.25 | 38 | 1009.4 |
| 20260905203101 | 37 | 320 | 3.2 | 12.9 | 0.00 | 0.25 | 0.25 | 41 | 1009.6 |
| 20260905201557 | 37 | 305 | 3.2 | 8.0 | 0.00 | 0.25 | 0.25 | 40 | 1009.7 |
| 20260905200118 | 37 | 319 | 4.8 | 16.1 | 0.00 | 0.25 | 0.25 | 40 | 1009.9 |
| 20260905194551 | 36 | 160 | 3.2 | 11.3 | 0.00 | 0.25 | 0.25 | 45 | 1010.1 |
| 20260905193049 | 36 | 223 | 1.6 | 8.0 | 0.00 | 0.25 | 0.25 | 43 | 1010.4 |
| 20260905191546 | 36 | 149 | 3.2 | 12.9 | 0.00 | 0.25 | 0.25 | 42 | 1010.7 |
| 20260905190047 | 35 | 163 | 1.6 | 11.3 | 0.00 | 0.25 | 0.25 | 44 | 1010.9 |
| 20260905184540 | 35 | 105 | 3.2 | 12.9 | 0.00 | 0.25 | 0.25 | 43 | 1011.1 |
| 20260905183036 | 35 | 184 | 6.4 | 9.7 | 0.00 | 0.25 | 0.25 | 45 | 1011.2 |
| 20260905181536 | 35 | 121 | 3.2 | 9.7 | 0.00 | 0.25 | 0.25 | 42 | 1011.6 |
| 20260905180048 | 35 | 161 | 3.2 | 9.7 | 0.00 | 0.25 | 0.25 | 45 | 1011.6 |
| 20260905174533 | 34 | 171 | 3.2 | 12.9 | 0.00 | 0.25 | 0.25 | 45 | 1011.9 |
| 20260905173031 | 34 | 161 | 3.2 | 14.5 | 0.00 | 0.25 | 0.25 | 46 | 1011.9 |
| 20260905171545 | 33 | 209 | 6.4 | 9.7 | 0.00 | 0.25 | 0.25 | 46 | 1012.0 |
| 20260905170024 | 33 | 170 | 4.8 | 12.9 | 0.00 | 0.25 | 0.25 | 50 | 1012.2 |
| 20260905164521 | 32 | 153 | 4.8 | 12.9 | 0.00 | 0.25 | 0.25 | 49 | 1012.4 |
| 20260905163018 | 32 | 160 | 8.0 | 16.1 | 0.00 | 0.25 | 0.25 | 53 | 1012.9 |
| 20260905161523 | 32 | 151 | 1.6 | 9.7 | 0.00 | 0.25 | 0.25 | 55 | 1013.0 |
| 20260905160011 | 31 | 263 | 3.2 | 9.7 | 0.00 | 0.25 | 0.25 | 56 | 1012.8 |
| 20260905154508 | 31 | 117 | 3.2 | 11.3 | 0.00 | 0.25 | 0.25 | 56 | 1012.9 |
| 20260905153004 | 30 | 80 | 3.2 | 12.9 | 0.00 | 0.25 | 0.25 | 57 | 1013.2 |
| 20260905151601 | 30 | 138 | 4.8 | 8.0 | 0.00 | 0.25 | 0.25 | 57 | 1013.3 |
| 20260905150055 | 29 | 136 | 3.2 | 11.3 | 0.00 | 0.25 | 0.25 | 59 | 1013.1 |
| 20260905144552 | 28 | 133 | 6.4 | 12.9 | 0.00 | 0.25 | 0.25 | 61 | 1013.4 |
| 20260905143048 | 28 | 167 | 6.4 | 11.3 | 0.00 | 0.25 | 0.25 | 63 | 1013.6 |
| 20260905141545 | 28 | 163 | 4.8 | 16.1 | 0.00 | 0.25 | 0.25 | 66 | 1013.6 |
| 20260905140040 | 27 | 131 | 4.8 | 14.5 | 0.05 | 0.25 | 0.25 | 70 | 1013.8 |
| 20260905134537 | 26 | 132 | 0.0 | 4.8 | 0.05 | 0.25 | 0.25 | 79 | 1013.8 |
| 20260905133036 | 25 | 104 | 1.6 | 16.1 | 0.05 | 0.25 | 0.25 | 79 | 1014.2 |
| 20260905131531 | 25 | 19 | 3.2 | 8.0 | 0.05 | 0.25 | 0.25 | 81 | 1014.2 |
| 20260905130028 | 25 | 32 | 4.8 | 12.9 | 0.00 | 0.20 | 0.20 | 85 | 1014.6 |
| 20260905124527 | 25 | 360 | 3.2 | 12.9 | 0.00 | 0.20 | 0.20 | 87 | 1014.0 |
| 20260905123024 | 25 | 202 | 1.6 | 3.2 | 0.00 | 0.20 | 0.20 | 87 | 1013.3 |
| 20260905121521 | 24 | 135 | 0.0 | 0.0 | 0.00 | 0.20 | 0.20 | 87 | 1012.9 |
| 20260905120033 | 24 | 136 | 0.0 | 0.0 | 0.00 | 0.20 | 0.20 | 87 | 1012.8 |
| 20260905114514 | 24 | 136 | 0.0 | 1.6 | 0.00 | 0.20 | 0.20 | 87 | 1012.8 |
| 20260905113014 | 24 | 134 | 0.0 | 4.8 | 0.00 | 0.20 | 0.20 | 87 | 1012.5 |
| 20260905111510 | 24 | 128 | 1.6 | 4.8 | 0.00 | 0.20 | 0.20 | 87 | 1012.6 |
| 20260905110017 | 24 | 128 | 1.6 | 9.7 | 0.00 | 0.20 | 0.20 | 87 | 1012.1 |
| 20260905104509 | 24 | 30 | 3.2 | 9.7 | 0.00 | 0.20 | 0.20 | 86 | 1011.8 |
| 20260905103016 | 24 | 314 | 0.0 | 0.0 | 0.03 | 0.20 | 0.20 | 86 | 1011.3 |
| 20260905101506 | 25 | 314 | 0.0 | 0.0 | 0.03 | 0.20 | 0.20 | 86 | 1011.4 |
| 20260905100004 | 25 | 314 | 0.0 | 0.0 | 0.03 | 0.20 | 0.20 | 85 | 1011.5 |
| 20260905094503 | 25 | 314 | 0.0 | 0.0 | 0.03 | 0.20 | 0.20 | 85 | 1011.5 |
| 20260905093003 | 25 | 314 | 0.0 | 0.0 | 0.00 | 0.18 | 0.18 | 84 | 1011.2 |
| 20260905091601 | 25 | 314 | 0.0 | 0.0 | 0.00 | 0.18 | 0.18 | 84 | 1011.1 |
| 20260905090059 | 25 | 314 | 0.0 | 0.0 | 0.00 | 0.18 | 0.18 | 84 | 1011.0 |
| 20260905084601 | 25 | 314 | 0.0 | 0.0 | 0.00 | 0.18 | 0.18 | 83 | 1011.1 |
| 20260905083056 | 25 | 314 | 1.6 | 3.2 | 0.00 | 0.18 | 0.18 | 83 | 1011.2 |
| 20260905081556 | 25 | 314 | 0.0 | 4.8 | 0.10 | 0.18 | 0.18 | 81 | 1011.2 |
| 20260905080054 | 25 | 347 | 0.0 | 3.2 | 0.18 | 0.18 | 0.18 | 79 | 1010.9 |
| 20260905074552 | 26 | 347 | 1.6 | 4.8 | 0.18 | 0.18 | 0.18 | 78 | 1010.9 |
| 20260905073051 | 26 | 136 | 4.8 | 16.1 | 0.18 | 0.18 | 0.18 | 75 | 1010.8 |
| 20260905071549 | 26 | 206 | 8.0 | 19.3 | 0.08 | 0.08 | 0.08 | 79 | 1011.5 |
| 20260905070053 | 26 | 282 | 0.0 | 0.0 | 0.00 | 0.00 | 0.00 | 80 | 1011.3 |
| 20260905064558 | 26 | 282 | 0.0 | 0.0 | 0.00 | 0.00 | 0.00 | 80 | 1011.5 |
| 20260905063042 | 26 | 282 | 0.0 | 0.0 | 0.00 | 0.00 | 0.00 | 79 | 1011.8 |
| 20260905061540 | 26 | 282 | 0.0 | 0.0 | 0.00 | 0.00 | 0.00 | 79 | 1012.0 |
| 20260905060041 | 26 | 282 | 0.0 | 0.0 | 0.00 | 0.00 | 0.00 | 78 | 1012.2 |
| 20260905054546 | 26 | 282 | 0.0 | 0.0 | 0.00 | 0.00 | 0.00 | 77 | 1012.3 |
| 20260905053037 | 26 | 282 | 0.0 | 0.0 | 0.00 | 0.00 | 0.00 | 77 | 1012.3 |
| 20260905051543 | 27 | 282 | 0.0 | 0.0 | 0.00 | 0.00 | 0.00 | 77 | 1012.2 |
| 20260905050032 | 27 | 282 | 0.0 | 0.0 | 0.00 | 0.00 | 0.00 | 76 | 1012.2 |
| 20260905044530 | 27 | 282 | 0.0 | 0.0 | 0.00 | 0.00 | 0.00 | 75 | 1012.2 |
| 20260905043034 | 27 | 282 | 0.0 | 1.6 | 0.00 | 0.00 | 0.00 | 75 | 1012.2 |
| 20260905041528 | 27 | 282 | 0.0 | 0.0 | 0.00 | 0.00 | 0.00 | 74 | 1012.3 |
| 20260905040026 | 27 | 282 | 0.0 | 1.6 | 0.00 | 0.00 | 0.00 | 73 | 1012.3 |
| 20260905034530 | 28 | 282 | 0.0 | 0.0 | 0.00 | 0.00 | 0.00 | 72 | 1012.2 |
| 20260905033026 | 28 | 282 | 0.0 | 1.6 | 0.00 | 0.00 | 0.00 | 71 | 1012.3 |
| 20260905031522 | 28 | 282 | 0.0 | 0.0 | 0.00 | 0.00 | 0.00 | 68 | 1012.3 |
| 20260905030021 | 29 | 282 | 0.0 | 0.0 | 0.00 | 0.00 | 0.00 | 67 | 1012.3 |
| 20260905024523 | 29 | 282 | 0.0 | 0.0 | 0.00 | 0.00 | 0.00 | 66 | 1012.3 |
| 20260905023021 | 30 | 282 | 0.0 | 1.6 | 0.00 | 0.00 | 0.00 | 66 | 1012.2 |
| 20260905021534 | 30 | 282 | 0.0 | 3.2 | 0.00 | 0.00 | 0.00 | 64 | 1012.2 |
| 20260905020024 | 30 | 282 | 0.0 | 0.0 | 0.00 | 0.00 | 0.00 | 62 | 1012.1 |
| 20260905014518 | 31 | 282 | 0.0 | 3.2 | 0.00 | 0.00 | 0.00 | 61 | 1012.1 |
| 20260905013018 | 31 | 282 | 0.0 | 1.6 | 0.00 | 0.00 | 0.00 | 59 | 1011.8 |
| 20260905011517 | 32 | 282 | 0.0 | 1.6 | 0.00 | 0.00 | 0.00 | 57 | 1011.7 |
| 20260905010020 | 32 | 282 | 0.0 | 3.2 | 0.00 | 0.00 | 0.00 | 56 | 1011.5 |
| 20260905004520 | 33 | 282 | 0.0 | 1.6 | 0.00 | 0.00 | 0.00 | 53 | 1011.5 |
| 20260905003020 | 33 | 282 | 0.0 | 1.6 | 0.00 | 0.00 | 0.00 | 50 | 1011.3 |
| 20260905001515 | 35 | 282 | 0.0 | 1.6 | 0.00 | 0.00 | 0.00 | 48 | 1011.2 |
| 20260905000015 | 35 | 282 | 0.0 | 1.6 | 0.00 | 0.00 | 0.00 | 46 | 1011.2 |
| 20260904234514 | 36 | 282 | 0.0 | 1.6 | 0.00 | 0.00 | 0.00 | 45 | 1011.2 |
| 20260904233013 | 36 | 282 | 1.6 | 8.0 | 0.00 | 0.00 | 0.00 | 43 | 1011.2 |
| 20260904231513 | 36 | 9 | 0.0 | 3.2 | 0.00 | 0.00 | 0.00 | 42 | 1011.3 |
| 20260904230011 | 36 | 5 | 1.6 | 6.4 | 0.00 | 0.00 | 0.00 | 41 | 1011.3 |
| 20260904224509 | 36 | 5 | 1.6 | 4.8 | 0.00 | 0.00 | 0.00 | 40 | 1011.4 |
| 20260904223008 | 37 | 13 | 0.0 | 6.4 | 0.00 | 0.00 | 0.00 | 39 | 1011.5 |
| 20260904221526 | 37 | 24 | 3.2 | 12.9 | 0.00 | 0.00 | 0.00 | 39 | 1011.6 |
| 20260904220007 | 37 | 30 | 3.2 | 8.0 | 0.00 | 0.00 | 0.00 | 39 | 1011.6 |
| 20260904214506 | 37 | 335 | 1.6 | 6.4 | 0.00 | 0.00 | 0.00 | 37 | 1011.6 |
| 20260904213012 | 37 | 323 | 3.2 | 8.0 | 0.00 | 0.00 | 0.00 | 39 | 1011.7 |
| 20260904211504 | 38 | 315 | 4.8 | 12.9 | 0.00 | 0.00 | 0.00 | 38 | 1011.8 |
| 20260904210002 | 38 | 241 | 4.8 | 9.7 | 0.00 | 0.00 | 0.00 | 38 | 1011.8 |